Flight Track Log - Related Links

Times and Time Zones

All times are in EDT time to prevent confusion due to time zone crossing. See the EJA922 flight status page for this flight to view local times or setup timezone preferences in your user account.

Time Position Orientation Groundspeed Altitude Reporting Facility
EDT Latitude Longitude Course Direction KTS MPH feet Rate Location/Type
Sun 02:25:02 PM 40.0042 -82.9322 255° West 193 222 2,000  Level Indianapolis Center
Sun 02:26:33 PM 39.9839 -83.0331 255° West 237 273 6,800 3,529 Climbing Indianapolis Center
Sun 02:27:35 PM 39.9100 -83.0047 164° South 272 313 11,000 3,290 Climbing Indianapolis Center
Sun 02:28:37 PM 39.8442 -82.9317 140° Southeast 309 356 13,600 2,274 Climbing Indianapolis Center
Sun 02:29:39 PM 39.7533 -82.8297 139° Southeast 364 419 15,700 1,839 Climbing Indianapolis Center
Sun 02:30:41 PM 39.6719 -82.7394 139° Southeast 378 435 17,400 1,512 Climbing Indianapolis Center
Sun 02:31:42 PM 39.5894 -82.6472 139° Southeast 386 444 18,800 1,366 Climbing Indianapolis Center
Sun 02:32:44 PM 39.5042 -82.5522 139° Southeast 397 457 20,200 1,403 Climbing Indianapolis Center
Sun 02:33:46 PM 39.4178 -82.4558 139° Southeast 399 459 21,700 1,306 Climbing Indianapolis Center
Sun 02:34:48 PM 39.3314 -82.3617 140° Southeast 405 466 22,900 1,161 Climbing Indianapolis Center
Sun 02:35:50 PM 39.2453 -82.2661 139° Southeast 408 470 24,100 1,065 Climbing Indianapolis Center
Sun 02:36:52 PM 39.1575 -82.1681 139° Southeast 414 476 25,100 968 Climbing Indianapolis Center
Sun 02:37:54 PM 39.0714 -82.0753 140° Southeast 406 467 26,100 1,016 Climbing Indianapolis Center
Sun 02:38:56 PM 38.9689 -81.9639 140° Southeast 403 464 27,200 1,016 Climbing Indianapolis Center
Sun 02:39:58 PM 38.8853 -81.8731 140° Southeast 397 457 28,200 1,016 Climbing Indianapolis Center
Sun 02:41:00 PM 38.8031 -81.7847 140° Southeast 387 445 29,300 927 Climbing Indianapolis Center
Sun 02:42:01 PM 38.7206 -81.6969 140° Southeast 389 448 30,100 683 Climbing Indianapolis Center
Sun 02:43:03 PM 38.6275 -81.5950 139° Southeast 408 470 30,700 581 Climbing Indianapolis Center
Sun 02:44:05 PM 38.5286 -81.4906 140° Southeast 423 487 31,300 532 Climbing Indianapolis Center
Sun 02:45:07 PM 38.4372 -81.3922 140° Southeast 430 495 31,800 672 Climbing Indianapolis Center
Sun 02:46:10 PM 38.3414 -81.2917 141° Southeast 443 510 32,700 1,056 Climbing Indianapolis Center
Sun 02:47:12 PM 38.2475 -81.1914 140° Southeast 441 507 34,000 1,113 Climbing Indianapolis Center
Sun 02:48:14 PM 38.1528 -81.0925 141° Southeast 440 506 35,000 1,403 Climbing Indianapolis Center
Sun 02:49:16 PM 38.0394 -80.9736 140° Southeast 439 505 36,900 1,887 Climbing Indianapolis Center
Sun 02:50:18 PM 37.9472 -80.8764 140° Southeast 433 498 38,900 1,548 Climbing Indianapolis Center
Sun 02:51:20 PM 37.8581 -80.7833 141° Southeast 420 483 40,100 1,016 Climbing Indianapolis Center
Sun 02:52:22 PM 37.7733 -80.6944 140° Southeast 413 475 41,000 478 Climbing Indianapolis Center
Sun 02:53:13 PM 37.6847 -80.6067 142° Southeast 426 490 41,000  Level Washington Center
Sun 02:54:13 PM 37.5886 -80.5086 141° Southeast 435 501 41,000  Level Washington Center
Sun 02:55:14 PM 37.4903 -80.4081 141° Southeast 445 512 41,000  Level Washington Center
Sun 02:56:12 PM 37.4042 -80.3214 141° Southeast 445 512 41,000  Level Washington Center
Sun 02:57:12 PM 37.3100 -80.2242 141° Southeast 445 512 41,000  Level Washington Center
Sun 02:58:12 PM 37.2114 -80.1244 141° Southeast 451 519 41,000  Level Washington Center
Sun 02:59:13 PM 37.1011 -80.0086 140° Southeast 458 527 41,000  Level Washington Center
Sun 03:00:14 PM 37.0003 -79.9092 142° Southeast 458 527 41,000  Level Washington Center
Sun 03:01:12 PM 36.8978 -79.8047 141° Southeast 463 533 41,000  Level Washington Center
Sun 03:02:13 PM 36.8072 -79.7114 140° Southeast 468 539 41,000  Level Washington Center
Sun 03:03:14 PM 36.7061 -79.6103 141° Southeast 468 539 41,000 101 Level Washington Center
Sun 03:04:12 PM 36.6053 -79.5067 140° Southeast 473 544 41,200 407 Climbing Washington Center
Sun 03:05:12 PM 36.4900 -79.3925 141° Southeast 473 544 41,800 590 Climbing Washington Center
Sun 03:06:14 PM 36.3869 -79.2894 141° Southeast 473 544 42,400 600 Climbing Washington Center
Sun 03:07:12 PM 36.2897 -79.1944 142° Southeast 468 539 43,000 305 Climbing Washington Center
Sun 03:08:12 PM 36.1883 -79.0947 142° Southeast 463 533 43,000  Level Washington Center
Sun 03:09:14 PM 36.0869 -78.9950 142° Southeast 463 533 43,000  Level Washington Center
Sun 03:10:15 PM 35.9833 -78.8906 141° Southeast 469 540 43,000  Level Washington Center
Sun 03:11:12 PM 35.8775 -78.7964 144° Southeast 475 547 43,000  Level Washington Center
Sun 03:12:25 PM 35.7581 -78.7325 157° South 470 541 43,000  Level Washington Center
Sun 03:13:25 PM 35.6117 -78.6656 160° South 464 534 43,000  Level Washington Center
Sun 03:14:26 PM 35.4903 -78.5997 156° South 481 554 43,000  Level Washington Center
Sun 03:15:26 PM 35.3644 -78.5414 159° South 481 554 43,000  Level Washington Center
Sun 03:16:26 PM 35.2344 -78.4858 161° South 494 568 43,000  Level Washington Center
Sun 03:17:27 PM 35.1106 -78.4281 159° South 489 563 43,000  Level Washington Center
Sun 03:18:24 PM 34.9889 -78.3706 159° South 479 551 43,000  Level Washington Center
Sun 03:19:25 PM 34.8628 -78.3106 159° South 479 551 43,000  Level Washington Center
Sun 03:20:26 PM 34.7553 -78.2639 160° South 473 544 43,000  Level Washington Center
Sun 03:21:24 PM 34.6314 -78.2069 159° South 473 544 43,000  Level Washington Center
Sun 03:22:25 PM 34.5075 -78.1500 159° South 473 544 43,000  Level Washington Center
Sun 03:23:25 PM 34.3814 -78.0908 159° South 479 551 43,000  Level Washington Center
Sun 03:25:03 PM 34.1711 -77.9936 159° South 477 549 43,000  Level Jacksonville Center
Sun 03:26:03 PM 34.0422 -77.9556 166° South 484 557 43,000  Level Jacksonville Center
Sun 03:27:03 PM 33.9147 -77.9478 177° South 475 547 43,000  Level Jacksonville Center
Sun 03:28:03 PM 33.7831 -77.9403 177° South 475 547 43,000 -50 Level Jacksonville Center
Sun 03:29:03 PM 33.6339 -77.9161 172° South 488 562 42,900  Descending Jacksonville Center
Sun 03:30:03 PM 33.5086 -77.8636 161° South 478 550 43,000 200 Climbing Jacksonville Center
Sun 03:31:03 PM 33.3814 -77.8086 160° South 484 557 43,300 450 Climbing Jacksonville Center
Sun 03:32:03 PM 33.2542 -77.7561 161° South 491 565 43,900 600 Climbing Jacksonville Center
Sun 03:33:03 PM 33.1289 -77.7039 161° South 491 565 44,500 550 Climbing Jacksonville Center
Sun 03:34:03 PM 33.0056 -77.6542 161° South 486 559 45,000 250 Climbing Jacksonville Center
Sun 03:35:03 PM 32.8825 -77.6044 161° South 480 552 45,000  Level Jacksonville Center
Sun 03:36:03 PM 32.7575 -77.5550 162° South 474 545 45,000  Level Jacksonville Center
Sun 03:37:03 PM 32.6342 -77.5056 161° South 474 545 45,000  Level Jacksonville Center
Sun 03:38:03 PM 32.5111 -77.4561 161° South 474 545 45,000 -50 Level Jacksonville Center
Sun 03:39:03 PM 32.3900 -77.4092 162° South 474 545 44,900  Descending Jacksonville Center
Sun 03:40:03 PM 32.2667 -77.3578 161° South 474 545 45,000 50 Climbing Jacksonville Center
Sun 03:41:03 PM 32.1436 -77.3089 161° South 474 545 45,000  Level Jacksonville Center
Sun 03:42:03 PM 32.0203 -77.2575 161° South 474 545 45,000  Level Jacksonville Center
Sun 03:43:03 PM 31.8969 -77.2086 161° South 474 545 45,000  Level Jacksonville Center
Sun 03:44:03 PM 31.7697 -77.1628 163° South 474 545 45,000  Level Jacksonville Center
Sun 03:45:03 PM 31.6486 -77.1117 160° South 474 545 45,000  Level Jacksonville Center
Sun 03:46:03 PM 31.5250 -77.0611 161° South 474 545 45,000  Level Jacksonville Center
Sun 03:47:03 PM 31.3997 -77.0153 163° South 474 545 45,000  Level Jacksonville Center
Sun 03:48:29 PM 31.3500 -77.0000 140° Southeast 448 516 45,000  Level New York Oceanic (ODAPS)
Sun 03:54:00 PM 30.6773 -76.3538 141° Southeast 448 516 45,000  Level FlightAware Transoceanic
Sun 03:55:00 PM 30.5810 -76.2622 141° Southeast 448 516 45,000  Level FlightAware Transoceanic
Sun 03:56:00 PM 30.4845 -76.1708 141° Southeast 448 516 45,000  Level FlightAware Transoceanic
Sun 03:57:00 PM 30.3881 -76.0796 141° Southeast 448 516 45,000  Level FlightAware Transoceanic
Sun 03:58:00 PM 30.2915 -75.9885 141° Southeast 448 516 45,000  Level FlightAware Transoceanic
Sun 03:59:00 PM 30.1949 -75.8977 141° Southeast 448 516 45,000  Level FlightAware Transoceanic
Sun 04:00:00 PM 30.0982 -75.8070 141° Southeast 448 516 45,000  Level FlightAware Transoceanic
Sun 04:01:00 PM 30.0015 -75.7165 141° Southeast 448 516 45,000  Level FlightAware Transoceanic
Sun 04:02:00 PM 29.9047 -75.6261 141° Southeast 448 516 45,000  Level FlightAware Transoceanic
Sun 04:03:00 PM 29.8078 -75.5360 141° Southeast 448 516 45,000  Level FlightAware Transoceanic
Sun 04:04:00 PM 29.7109 -75.4460 141° Southeast 448 516 45,000  Level FlightAware Transoceanic
Sun 04:05:00 PM 29.6139 -75.3562 141° Southeast 448 516 45,000  Level FlightAware Transoceanic
Sun 04:06:00 PM 29.5169 -75.2666 141° Southeast 448 516 45,000  Level FlightAware Transoceanic
Sun 04:07:00 PM 29.4198 -75.1771 141° Southeast 448 516 45,000  Level FlightAware Transoceanic
Sun 04:08:00 PM 29.3226 -75.0878 141° Southeast 448 516 45,000  Level FlightAware Transoceanic
Sun 04:09:00 PM 29.2254 -74.9987 141° Southeast 448 516 45,000  Level FlightAware Transoceanic
Sun 04:10:00 PM 29.1281 -74.9098 141° Southeast 448 516 45,000  Level FlightAware Transoceanic
Sun 04:11:00 PM 29.0308 -74.8210 141° Southeast 448 516 45,000  Level FlightAware Transoceanic
Sun 04:12:00 PM 28.9334 -74.7324 142° Southeast 448 516 45,000  Level FlightAware Transoceanic
Sun 04:13:00 PM 28.8359 -74.6439 142° Southeast 448 516 45,000  Level FlightAware Transoceanic
Sun 04:14:00 PM 28.7384 -74.5556 142° Southeast 448 516 45,000  Level FlightAware Transoceanic
Sun 04:15:00 PM 28.6408 -74.4675 142° Southeast 448 516 45,000  Level FlightAware Transoceanic
Sun 04:16:00 PM 28.5432 -74.3795 142° Southeast 448 516 45,000  Level FlightAware Transoceanic
Sun 04:17:00 PM 28.4455 -74.2918 142° Southeast 448 516 45,000  Level FlightAware Transoceanic
Sun 04:18:00 PM 28.3478 -74.2041 142° Southeast 448 516 45,000  Level FlightAware Transoceanic
Sun 04:19:00 PM 28.2500 -74.1167 149° Southeast 448 516 45,000  Level FlightAware Transoceanic
Sun 04:20:00 PM 28.1345 -74.0389 149° Southeast 448 516 45,000  Level FlightAware Transoceanic
Sun 04:21:00 PM 28.0189 -73.9614 149° Southeast 448 516 45,000  Level FlightAware Transoceanic
Sun 04:21:08 PM 28.2500 -74.1167 149° Southeast 450 518 45,000  Level New York Oceanic (ODAPS)
Sun 04:22:00 PM 27.9033 -73.8840 149° Southeast 448 516 45,000  Level FlightAware Transoceanic
Sun 04:23:00 PM 27.7877 -73.8067 149° Southeast 448 516 45,000  Level FlightAware Transoceanic
Sun 04:24:00 PM 27.6720 -73.7297 149° Southeast 448 516 45,000  Level FlightAware Transoceanic
Sun 04:25:00 PM 27.5563 -73.6528 150° Southeast 448 516 45,000  Level FlightAware Transoceanic
Sun 04:26:00 PM 27.4405 -73.5760 150° Southeast 448 516 45,000  Level FlightAware Transoceanic
Sun 04:27:00 PM 27.2783 -73.4689 150° Southeast 450 518 45,000  Level FlightAware Transoceanic
Sun 04:28:00 PM 27.1702 -73.3976 150° Southeast 450 518 45,000  Level FlightAware Transoceanic
Sun 04:29:00 PM 27.0620 -73.3265 150° Southeast 450 518 45,000  Level FlightAware Transoceanic
Sun 04:30:00 PM 26.9538 -73.2555 150° Southeast 450 518 45,000  Level FlightAware Transoceanic
Sun 04:31:00 PM 26.8455 -73.1846 150° Southeast 450 518 45,000  Level FlightAware Transoceanic
Sun 04:32:00 PM 26.7372 -73.1139 150° Southeast 450 518 45,000  Level FlightAware Transoceanic
Sun 04:33:00 PM 26.6289 -73.0433 150° Southeast 450 518 45,000  Level FlightAware Transoceanic
Sun 04:34:00 PM 26.5206 -72.9728 150° Southeast 450 518 45,000  Level FlightAware Transoceanic
Sun 04:35:00 PM 26.4122 -72.9025 150° Southeast 450 518 45,000  Level FlightAware Transoceanic
Sun 04:36:00 PM 26.3037 -72.8323 150° Southeast 450 518 45,000  Level FlightAware Transoceanic
Sun 04:37:00 PM 26.1953 -72.7623 150° Southeast 450 518 45,000  Level FlightAware Transoceanic
Sun 04:38:00 PM 26.0868 -72.6923 150° Southeast 450 518 45,000  Level FlightAware Transoceanic
Sun 04:39:00 PM 25.9783 -72.6225 150° Southeast 450 518 45,000  Level FlightAware Transoceanic
Sun 04:40:00 PM 25.8697 -72.5528 150° Southeast 450 518 45,000  Level FlightAware Transoceanic
Sun 04:40:18 PM 25.8022 -72.5131 150° Southeast 487 560 45,000  Level Miami Center
Sun 04:41:00 PM 25.7611 -72.4833 150° Southeast 450 518 45,000  Level FlightAware Transoceanic
Sun 04:41:18 PM 25.6914 -72.4411 150° Southeast 481 554 45,000  Level Miami Center
Sun 04:42:00 PM 25.6525 -72.4139 150° Southeast 450 518 45,000  Level FlightAware Transoceanic
Sun 04:42:18 PM 25.5744 -72.3669 150° Southeast 473 544 45,000  Level Miami Center
Sun 04:43:00 PM 25.5438 -72.3446 150° Southeast 450 518 45,000  Level FlightAware Transoceanic
Sun 04:43:18 PM 25.4614 -72.2931 149° Southeast 478 550 45,000  Level Miami Center
Sun 04:44:00 PM 25.4351 -72.2754 150° Southeast 450 518 45,000  Level FlightAware Transoceanic
Sun 04:44:18 PM 25.3656 -72.2325 150° Southeast 478 550 45,000  Level Miami Center
Sun 04:45:00 PM 25.3264 -72.2064 150° Southeast 450 518 45,000  Level FlightAware Transoceanic
Sun 04:45:18 PM 25.2419 -72.1522 150° Southeast 474 545 45,000  Level Miami Center
Sun 04:46:17 PM 25.1267 -72.0786 150° Southeast 479 551 45,000  Level Miami Center
Sun 04:47:18 PM 25.0158 -72.0072 150° Southeast 478 550 45,000  Level Miami Center
Sun 04:48:18 PM 24.9039 -71.9086 141° Southeast 484 557 45,000  Level Miami Center
Sun 04:49:18 PM 24.7939 -71.8056 140° Southeast 484 557 45,000  Level Miami Center
Sun 04:50:17 PM 24.6967 -71.7067 137° Southeast 478 550 45,000  Level Miami Center
Sun 04:51:18 PM 24.5972 -71.6128 139° Southeast 473 544 45,000  Level Miami Center
Sun 04:52:18 PM 24.4978 -71.5189 139° Southeast 473 544 45,000  Level Miami Center
Sun 04:53:17 PM 24.4000 -71.4158 136° Southeast 473 544 45,000  Level Miami Center
Sun 04:54:18 PM 24.2986 -71.3247 141° Southeast 473 544 45,000  Level Miami Center
Sun 04:55:17 PM 24.2031 -71.2264 137° Southeast 469 540 45,000  Level Miami Center
Sun 04:56:18 PM 24.1031 -71.1242 137° Southeast 479 551 45,000  Level Miami Center
Sun 04:57:17 PM 24.0017 -71.0403 143° Southeast 474 545 45,000  Level Miami Center
Sun 04:58:17 PM 23.9017 -70.9403 138° Southeast 474 545 45,000  Level Miami Center
Sun 04:59:18 PM 23.8025 -70.8567 142° Southeast 469 540 45,000  Level Miami Center
Sun 05:00:17 PM 23.7000 -70.7528 137° Southeast 474 545 45,000  Level Miami Center
Sun 05:01:18 PM 23.6025 -70.6600 139° Southeast 474 545 45,000  Level Miami Center
Sun 05:02:18 PM 23.5028 -70.5697 140° Southeast 474 545 45,000  Level Miami Center
Sun 05:03:18 PM 23.4028 -70.4775 140° Southeast 474 545 45,000  Level Miami Center
Sun 05:04:18 PM 23.3028 -70.3831 139° Southeast 474 545 45,000  Level Miami Center
Sun 05:05:18 PM 23.2006 -70.2867 139° Southeast 479 551 45,000  Level Miami Center
Sun 05:06:18 PM 23.1047 -70.1992 140° Southeast 468 539 45,000  Level Miami Center
Sun 05:07:17 PM 23.0069 -70.1072 139° Southeast 468 539 45,000  Level Miami Center
Sun 05:08:17 PM 22.9067 -70.0136 139° Southeast 468 539 45,000  Level Miami Center
Sun 05:09:17 PM 22.8108 -69.9242 139° Southeast 468 539 45,000  Level Miami Center
Sun 05:10:18 PM 22.7128 -69.8328 139° Southeast 468 539 45,000  Level Miami Center
Sun 05:11:17 PM 22.6125 -69.7439 141° Southeast 469 540 45,000  Level Miami Center
Sun 05:12:17 PM 22.5100 -69.6439 138° Southeast 474 545 45,000  Level Miami Center
Sun 05:13:18 PM 22.4097 -69.5531 140° Southeast 474 545 45,000  Level Miami Center
Sun 05:14:18 PM 22.3072 -69.4603 140° Southeast 474 545 45,000  Level Miami Center
Sun 05:15:18 PM 22.1933 -69.3906 150° Southeast 479 551 45,000  Level Miami Center
Sun 05:16:18 PM 22.0678 -69.3394 159° South 471 542 45,000  Level Miami Center
Sun 05:17:18 PM 21.9444 -69.2906 160° South 471 542 45,000  Level Miami Center
Sun 05:18:18 PM 21.8317 -69.2458 160° South 471 542 45,000  Level Miami Center
Sun 05:19:18 PM 21.7178 -69.1742 150° Southeast 476 548 45,000  Level Miami Center
Sun 05:20:17 PM 21.6036 -69.1028 150° Southeast 476 548 45,000  Level Miami Center
Sun 05:21:17 PM 21.4853 -69.0294 150° Southeast 482 555 45,000  Level Miami Center
Sun 05:22:18 PM 21.3811 -68.9489 144° Southeast 474 545 45,000  Level Miami Center
Sun 05:23:17 PM 21.2706 -68.8642 144° Southeast 480 552 45,000  Level Miami Center
Sun 05:24:17 PM 21.1581 -68.7842 146° Southeast 485 558 45,000  Level Miami Center
Sun 05:25:17 PM 21.0517 -68.7019 144° Southeast 485 558 45,000  Level Miami Center
Sun 05:26:18 PM 20.9472 -68.6172 143° Southeast 485 558 45,000  Level Miami Center
Sun 05:27:18 PM 20.8408 -68.5331 144° Southeast 485 558 45,000  Level Miami Center
Sun 05:28:18 PM 20.7344 -68.4508 144° Southeast 485 558 45,000  Level Miami Center
Sun 05:29:18 PM 20.6278 -68.3669 144° Southeast 480 552 45,000  Level Miami Center
Sun 05:30:17 PM 20.5192 -68.2853 145° Southeast 474 545 45,000  Level Miami Center
Sun 05:31:18 PM 20.4144 -68.1989 142° Southeast 479 551 45,000  Level Miami Center
Sun 05:32:18 PM 20.3097 -68.1108 142° Southeast 479 551 45,000  Level Miami Center
Sun 05:33:17 PM 20.2322 -67.9922 125° Southeast 479 551 45,000  Level Miami Center
Sun 05:34:17 PM 20.1606 -67.8669 121° Southeast 484 557 45,000  Level Miami Center
Sun 05:34:53 PM 20.1000 -67.8000 134° Southeast 490 564 45,000  Level San Juan Center
Sun 05:35:54 PM 20.0333 -67.6667 118° Southeast 490 564 45,000 -397 Level San Juan Center
Sun 05:36:54 PM 19.9667 -67.5333 118° Southeast 500 575 44,200 -1,200 Descending San Juan Center
Sun 05:37:54 PM 19.8833 -67.4000 124° Southeast 530 610 42,600 -1,438 Descending San Juan Center
Sun 05:38:55 PM 19.8167 -67.2667 118° Southeast 540 621 41,300 -1,488 Descending San Juan Center
Sun 05:39:55 PM 19.7167 -67.1333 129° Southeast 560 644 39,600 -1,550 Descending San Juan Center
Sun 05:40:55 PM 19.6500 -66.9833 115° Southeast 550 633 38,200 -1,500 Descending San Juan Center
Sun 05:41:55 PM 19.5667 -66.8500 124° Southeast 540 621 36,600 -1,537 Descending San Juan Center
Sun 05:42:56 PM 19.4833 -66.7167 124° Southeast 540 621 35,100 -1,488 Descending San Juan Center
Sun 05:43:56 PM 19.4000 -66.5833 124° Southeast 530 610 33,600 -1,550 Descending San Juan Center
Sun 05:44:56 PM 19.3167 -66.4500 124° Southeast 530 610 32,000 -1,537 Descending San Juan Center
Sun 05:45:57 PM 19.2333 -66.3167 123° Southeast 530 610 30,500 -1,488 Descending San Juan Center
Sun 05:46:57 PM 19.1667 -66.1667 115° Southeast 540 621 29,000 -1,488 Descending San Juan Center
Sun 05:47:58 PM 19.0833 -66.0500 127° Southeast 550 633 27,500 -2,200 Descending San Juan Center
Sun 05:48:57 PM 18.9833 -65.9500 137° Southeast 500 575 24,600 -2,950 Descending San Juan Center
Sun 05:49:58 PM 18.8833 -65.8500 137° Southeast 460 529 21,600 -2,876 Descending San Juan Center
Sun 05:50:58 PM 18.7833 -65.7667 142° Southeast 460 529 18,800 -2,500 Descending San Juan Center
Sun 05:51:58 PM 18.7000 -65.6833 137° Southeast 400 460 16,600 -2,231 Descending San Juan Center
Sun 05:52:59 PM 18.6167 -65.6500 159° South 290 334 14,300 -2,182 Descending San Juan Center
Sun 05:53:59 PM 18.5500 -65.6167 155° Southeast 300 345 12,200 -1,900 Descending San Juan Center
Sun 05:54:59 PM 18.4667 -65.5833 159° South 280 322 10,500 -1,785 Descending San Juan Center
Sun 05:56:00 PM 18.4167 -65.5333 137° Southeast 270 311 8,600 -1,736 Descending San Juan Center
Sun 05:57:00 PM 18.3667 -65.4833 136° Southeast 260 299 7,000 -1,600 Descending San Juan Center
Sun 05:58:00 PM 18.3000 -65.4333 145° Southeast 260 299 5,400 -1,686 Descending San Juan Center
Sun 05:59:01 PM 18.2500 -65.3833 136° Southeast 250 288 3,600 -1,289 Descending San Juan Center
Sun 06:00:01 PM 18.2000 -65.3333 136° Southeast 210 242 2,800 -400 Descending San Juan Center
Sun 06:01:01 PM 18.2500 -65.3000 32° Northeast 180 207 2,800  Level San Juan Center
Sun 06:02:02 PM 18.2833 -65.2500 55° Northeast 190 219 2,800  Level San Juan Center
Sun 06:03:02 PM 18.3167 -65.2167 44° Northeast 180 207 2,800  Level San Juan Center
Sun 06:04:02 PM 18.3167 -65.1667 90° East 170 196 2,800 -149 Level San Juan Center
Sun 06:05:03 PM 18.3167 -65.1167 90° East 160 184 2,500 -446 Descending San Juan Center
Sun 06:06:03 PM 18.3167 -65.0833 90° East 120 138 1,900 -600 Descending San Juan Center
Sun 06:07:03 PM 18.3167 -65.0500 90° East 100 115 1,300 -600 Descending San Juan Center
Sun 06:08:03 PM 18.3333 -65.0167 62° Northeast 150 173 700 -600 Descending San Juan Center

Login

Don't have an account? Register now (free) for customized features, flight alerts, and more!